createdAt,value
2022-11-08T00:02:23.496Z,8.30
2022-11-08T00:04:50.489Z,8.20
2022-11-08T00:07:36.002Z,8.20
2022-11-08T00:10:21.327Z,8.20
2022-11-08T00:13:06.852Z,8.20
2022-11-08T00:15:38.388Z,8.10
2022-11-08T00:18:06.917Z,8.10
2022-11-08T00:20:34.633Z,8.00
2022-11-08T00:23:01.955Z,8.00
2022-11-08T00:25:28.847Z,7.90
2022-11-08T00:27:55.653Z,7.90
2022-11-08T00:30:22.531Z,7.90
2022-11-08T00:32:49.454Z,7.90
2022-11-08T00:35:16.458Z,7.90
2022-11-08T00:37:43.256Z,7.80
2022-11-08T00:40:10.659Z,7.80
2022-11-08T00:42:37.488Z,7.80
2022-11-08T00:45:04.839Z,7.80
2022-11-08T00:47:31.630Z,7.80
2022-11-08T00:49:58.457Z,7.80
2022-11-08T00:52:25.213Z,7.70
2022-11-08T00:54:51.971Z,7.70
2022-11-08T00:57:18.769Z,7.70
2022-11-08T00:59:45.588Z,7.60
2022-11-08T01:02:12.448Z,7.60
2022-11-08T01:04:39.300Z,7.50
2022-11-08T01:07:06.127Z,7.50
2022-11-08T01:09:32.932Z,7.50
2022-11-08T01:11:59.757Z,7.50
2022-11-08T01:14:26.589Z,7.50
2022-11-08T01:16:53.440Z,7.40
2022-11-08T01:19:20.187Z,7.40
2022-11-08T01:21:47.208Z,7.40
2022-11-08T01:24:13.977Z,7.40
2022-11-08T01:26:40.992Z,7.30
2022-11-08T01:29:07.856Z,7.30
2022-11-08T01:31:34.649Z,7.20
2022-11-08T01:34:01.532Z,7.20
2022-11-08T01:36:29.264Z,7.20
2022-11-08T01:38:56.905Z,7.20
2022-11-08T01:41:25.530Z,7.10
2022-11-08T01:43:59.439Z,7.10
2022-11-08T01:46:40.340Z,7.10
2022-11-08T01:49:16.224Z,7.10
2022-11-08T01:51:59.923Z,7.00
2022-11-08T01:54:32.543Z,7.00
2022-11-08T01:57:03.168Z,7.00
2022-11-08T01:59:31.820Z,6.90
2022-11-08T02:01:59.249Z,6.90
2022-11-08T02:04:26.164Z,6.90
2022-11-08T02:06:53.613Z,6.90
2022-11-08T02:09:20.992Z,6.90
2022-11-08T02:11:49.325Z,6.80
2022-11-08T02:14:17.898Z,6.80
2022-11-08T02:16:44.784Z,6.80
2022-11-08T02:19:20.956Z,6.80
2022-11-08T02:21:56.276Z,6.80
2022-11-08T02:24:23.094Z,6.80
2022-11-08T02:26:52.624Z,6.80
2022-11-08T02:29:27.392Z,6.70
2022-11-08T02:31:54.879Z,6.70
2022-11-08T02:34:44.130Z,6.70
2022-11-08T02:37:12.744Z,6.60
2022-11-08T02:39:39.521Z,6.60
2022-11-08T02:42:06.413Z,6.60
2022-11-08T02:44:33.203Z,6.50
2022-11-08T02:47:00.090Z,6.50
2022-11-08T02:49:26.903Z,6.50
2022-11-08T02:51:54.026Z,6.50
2022-11-08T02:54:21.091Z,6.40
2022-11-08T02:56:48.034Z,6.40
2022-11-08T02:59:15.075Z,6.40
2022-11-08T03:01:42.313Z,6.40
2022-11-08T03:04:09.390Z,6.40
2022-11-08T03:06:36.164Z,6.30
2022-11-08T03:09:03.168Z,6.30
2022-11-08T03:11:29.932Z,6.30
2022-11-08T03:13:56.951Z,6.30
2022-11-08T03:16:23.899Z,6.20
2022-11-08T03:18:50.715Z,6.20
2022-11-08T03:21:17.491Z,6.20
2022-11-08T03:23:44.393Z,6.10
2022-11-08T03:26:11.192Z,6.10
2022-11-08T03:28:38.113Z,6.10
2022-11-08T03:31:05.015Z,6.10
2022-11-08T03:33:31.886Z,6.10
2022-11-08T03:35:59.374Z,6.00
2022-11-08T03:38:26.114Z,6.00
2022-11-08T03:40:52.854Z,6.00
2022-11-08T03:43:19.568Z,6.00
2022-11-08T03:45:46.736Z,5.90
2022-11-08T03:48:13.662Z,5.90
2022-11-08T03:50:40.445Z,5.90
2022-11-08T03:53:07.174Z,5.80
2022-11-08T03:55:33.954Z,5.80
2022-11-08T03:58:00.954Z,5.80
2022-11-08T04:00:29.039Z,5.80
2022-11-08T04:03:02.047Z,5.80
2022-11-08T04:05:29.193Z,5.80
2022-11-08T04:07:56.065Z,5.80
2022-11-08T04:10:22.852Z,5.70
2022-11-08T04:13:08.047Z,5.70
2022-11-08T04:15:34.811Z,5.70
2022-11-08T04:18:20.683Z,5.60
2022-11-08T04:21:07.460Z,5.60
2022-11-08T04:23:36.241Z,5.60
2022-11-08T04:26:06.574Z,5.60
2022-11-08T04:28:36.940Z,5.60
2022-11-08T04:31:10.107Z,5.60
2022-11-08T04:33:37.021Z,5.60
2022-11-08T04:36:06.455Z,5.60
2022-11-08T04:38:33.668Z,5.50
2022-11-08T04:41:22.188Z,5.60
2022-11-08T04:43:50.021Z,5.50
2022-11-08T04:46:20.313Z,5.50
2022-11-08T04:48:49.771Z,5.50
2022-11-08T04:51:23.096Z,5.50
2022-11-08T04:53:50.522Z,5.50
2022-11-08T04:56:19.718Z,5.50
2022-11-08T04:58:54.246Z,5.50
2022-11-08T05:01:24.665Z,5.40
2022-11-08T05:03:53.014Z,5.40
2022-11-08T05:06:25.316Z,5.40
2022-11-08T05:08:53.751Z,5.40
2022-11-08T05:11:22.658Z,5.40
2022-11-08T05:13:50.856Z,5.40
2022-11-08T05:16:35.946Z,5.40
2022-11-08T05:19:02.814Z,5.40
2022-11-08T05:21:48.639Z,5.40
2022-11-08T05:24:17.589Z,5.40
2022-11-08T05:26:47.315Z,5.40
2022-11-08T05:29:15.520Z,5.40
2022-11-08T05:31:42.334Z,5.40
2022-11-08T05:34:09.105Z,5.40
2022-11-08T05:36:35.927Z,5.40
2022-11-08T05:39:03.090Z,5.40
2022-11-08T05:41:30.090Z,5.30
2022-11-08T05:43:56.957Z,5.40
2022-11-08T05:46:24.147Z,5.30
2022-11-08T05:48:51.081Z,5.40
2022-11-08T05:51:19.223Z,5.30
2022-11-08T05:53:48.493Z,5.30
2022-11-08T05:56:15.844Z,5.40
2022-11-08T05:58:42.611Z,5.40
2022-11-08T06:01:12.296Z,5.40
2022-11-08T06:03:39.683Z,5.40
2022-11-08T06:06:16.351Z,5.40
2022-11-08T06:08:47.672Z,5.40
2022-11-08T06:11:18.661Z,5.40
2022-11-08T06:13:45.420Z,5.40
2022-11-08T06:16:14.254Z,5.40
2022-11-08T06:18:41.662Z,5.40
2022-11-08T06:21:12.739Z,5.40
2022-11-08T06:23:40.001Z,5.50
2022-11-08T06:26:07.076Z,5.50
2022-11-08T06:28:34.630Z,5.50
2022-11-08T06:31:02.771Z,5.50
2022-11-08T06:33:30.050Z,5.50
2022-11-08T06:35:56.946Z,5.50
2022-11-08T06:38:24.081Z,5.60
2022-11-08T06:40:50.953Z,5.60
2022-11-08T06:43:20.308Z,5.60
2022-11-08T06:45:47.739Z,5.70
2022-11-08T06:48:14.785Z,5.70
2022-11-08T06:50:42.470Z,5.80
2022-11-08T06:53:12.597Z,5.80
2022-11-08T06:55:39.905Z,5.80
2022-11-08T06:58:07.249Z,5.80
2022-11-08T07:00:34.471Z,5.80
2022-11-08T07:03:03.383Z,5.90
2022-11-08T07:05:32.349Z,5.90
2022-11-08T07:08:00.145Z,6.00
2022-11-08T07:10:30.303Z,6.00
2022-11-08T07:13:06.499Z,6.10
2022-11-08T07:15:35.128Z,6.20
2022-11-08T07:18:03.808Z,6.30
2022-11-08T07:20:30.930Z,6.30
2022-11-08T07:22:58.222Z,6.50
2022-11-08T07:25:26.235Z,6.50
2022-11-08T07:27:57.165Z,6.60
2022-11-08T07:30:24.251Z,6.70
2022-11-08T07:32:51.661Z,6.80
2022-11-08T07:35:18.856Z,6.80
2022-11-08T07:37:45.698Z,6.80
2022-11-08T07:40:13.221Z,6.90
2022-11-08T07:43:09.633Z,6.90
2022-11-08T07:45:28.137Z,7.00
2022-11-08T07:48:09.570Z,7.00
2022-11-08T07:50:38.144Z,7.10
2022-11-08T07:53:05.023Z,7.10
2022-11-08T07:55:31.829Z,7.20
2022-11-08T07:58:03.162Z,7.30
2022-11-08T08:00:31.292Z,7.30
2022-11-08T08:03:02.636Z,7.50
2022-11-08T08:05:33.653Z,7.50
2022-11-08T08:08:01.984Z,7.60
2022-11-08T08:10:29.570Z,7.70
2022-11-08T08:12:57.119Z,7.80
2022-11-08T08:15:25.438Z,7.90
2022-11-08T08:17:52.499Z,8.00
2022-11-08T08:20:19.685Z,8.00
2022-11-08T08:22:48.578Z,8.10
2022-11-08T08:25:16.423Z,8.30
2022-11-08T08:27:51.353Z,8.40
2022-11-08T08:30:19.277Z,8.50
2022-11-08T08:32:53.421Z,8.50
2022-11-08T08:35:24.748Z,8.70
2022-11-08T08:37:51.553Z,8.80
2022-11-08T08:40:18.532Z,8.90
2022-11-08T08:42:45.704Z,9.00
2022-11-08T08:45:15.105Z,9.10
2022-11-08T08:47:42.298Z,9.20
2022-11-08T08:50:09.906Z,9.30
2022-11-08T08:52:36.844Z,9.30
2022-11-08T08:55:03.825Z,9.40
2022-11-08T08:57:30.824Z,9.40
2022-11-08T09:02:44.760Z,9.60
2022-11-08T09:05:13.442Z,9.60
2022-11-08T09:07:41.064Z,9.70
2022-11-08T09:10:09.931Z,9.80
2022-11-08T09:12:38.100Z,9.80
2022-11-08T09:15:06.099Z,9.90
2022-11-08T09:17:33.108Z,9.90
2022-11-08T09:20:00.108Z,10.00
2022-11-08T09:22:27.400Z,10.10
2022-11-08T09:24:54.478Z,10.10
2022-11-08T09:27:21.472Z,10.20
2022-11-08T09:29:48.644Z,10.30
2022-11-08T09:32:17.220Z,10.40
2022-11-08T09:34:48.656Z,10.50
2022-11-08T09:37:15.812Z,10.60
2022-11-08T09:39:43.046Z,10.60
2022-11-08T09:42:22.351Z,10.70
2022-11-08T09:44:58.277Z,10.70
2022-11-08T09:47:36.031Z,10.80
2022-11-08T09:50:12.225Z,10.80
2022-11-08T09:52:41.527Z,10.90
2022-11-08T09:55:12.042Z,11.10
2022-11-08T09:57:51.074Z,11.10
2022-11-08T10:00:18.262Z,11.20
2022-11-08T10:02:45.593Z,11.30
2022-11-08T10:05:16.011Z,11.40
2022-11-08T10:08:23.025Z,11.40
2022-11-08T10:11:13.099Z,11.40
2022-11-08T10:14:08.669Z,11.50
2022-11-08T10:16:43.508Z,11.50
2022-11-08T10:19:16.778Z,11.50
2022-11-08T10:22:00.309Z,11.40
2022-11-08T10:24:40.912Z,11.50
2022-11-08T10:27:21.209Z,11.50
2022-11-08T10:29:56.097Z,11.50
2022-11-08T10:32:25.363Z,11.40
2022-11-08T10:35:12.434Z,11.40
2022-11-08T10:37:41.973Z,11.40
2022-11-08T10:40:41.062Z,11.40
2022-11-08T10:43:20.496Z,11.40
2022-11-08T10:45:47.646Z,11.50
2022-11-08T10:48:14.859Z,11.60
2022-11-08T10:50:45.786Z,11.70
2022-11-08T10:53:24.357Z,11.70
2022-11-08T10:56:04.179Z,11.80
2022-11-08T10:58:42.101Z,11.90
2022-11-08T11:01:19.945Z,11.90
2022-11-08T11:03:49.082Z,12.00
2022-11-08T11:06:30.175Z,12.10
2022-11-08T11:09:17.326Z,12.10
2022-11-08T11:11:45.393Z,12.10
2022-11-08T11:14:21.932Z,12.10
2022-11-08T11:17:02.859Z,12.10
2022-11-08T11:19:31.530Z,12.20
2022-11-08T11:22:06.640Z,12.20
2022-11-08T11:24:36.015Z,12.20
2022-11-08T11:27:15.293Z,12.20
2022-11-08T11:29:42.098Z,12.30
2022-11-08T11:32:33.508Z,12.30
2022-11-08T11:35:06.464Z,12.40
2022-11-08T11:37:42.734Z,12.50
2022-11-08T11:40:36.953Z,12.50
2022-11-08T11:43:12.726Z,12.60
2022-11-08T11:46:10.673Z,12.70
2022-11-08T11:48:45.951Z,12.90
2022-11-08T11:51:13.873Z,13.00
2022-11-08T11:53:47.383Z,13.10
2022-11-08T11:56:31.364Z,13.20
2022-11-08T11:59:16.909Z,13.30
2022-11-08T12:02:02.699Z,13.30
2022-11-08T12:04:54.328Z,13.40
2022-11-08T12:07:29.871Z,13.60
2022-11-08T12:10:34.497Z,13.70
2022-11-08T12:13:12.079Z,13.80
2022-11-08T12:15:50.994Z,13.90
2022-11-08T12:18:59.274Z,14.00
2022-11-08T12:21:43.759Z,14.00
2022-11-08T12:24:28.644Z,14.10
2022-11-08T12:27:30.416Z,14.10
2022-11-08T12:30:11.838Z,14.20
2022-11-08T12:33:07.144Z,14.30
2022-11-08T12:35:56.901Z,14.30
2022-11-08T12:39:01.697Z,14.40
2022-11-08T12:41:44.679Z,14.50
2022-11-08T12:44:29.591Z,14.50
2022-11-08T12:47:17.425Z,14.70
2022-11-08T12:50:12.016Z,14.70
2022-11-08T12:52:47.786Z,14.80
2022-11-08T12:55:23.836Z,14.90
2022-11-08T12:57:53.520Z,15.00
2022-11-08T13:00:20.646Z,15.10
2022-11-08T13:03:16.206Z,15.20
2022-11-08T13:05:59.213Z,15.20
2022-11-08T13:08:42.630Z,15.30
2022-11-08T13:11:19.053Z,15.30
2022-11-08T13:13:53.155Z,15.40
2022-11-08T13:16:28.878Z,15.50
2022-11-08T13:19:01.390Z,15.50
2022-11-08T13:21:28.400Z,15.50
2022-11-08T13:24:43.355Z,15.50
2022-11-08T13:27:26.096Z,15.40
2022-11-08T13:29:58.338Z,15.40
2022-11-08T13:32:53.848Z,15.40
2022-11-08T13:35:37.745Z,15.30
2022-11-08T13:38:21.745Z,15.30
2022-11-08T13:41:20.675Z,15.20
2022-11-08T13:43:48.624Z,15.20
2022-11-08T13:46:27.925Z,15.10
2022-11-08T13:48:57.870Z,15.10
2022-11-08T13:51:26.194Z,15.00
2022-11-08T13:53:58.124Z,15.00
2022-11-08T13:56:45.603Z,14.90
2022-11-08T13:59:31.213Z,14.80
2022-11-08T14:02:00.814Z,14.80
2022-11-08T14:04:38.784Z,14.70
2022-11-08T14:07:25.453Z,14.70
2022-11-08T14:10:00.002Z,14.60
2022-11-08T14:12:26.930Z,14.60
2022-11-08T14:14:56.698Z,14.60
2022-11-08T14:17:49.450Z,14.50
2022-11-08T14:20:16.492Z,14.50
2022-11-08T14:22:49.870Z,14.50
2022-11-08T14:25:32.072Z,14.50
2022-11-08T14:27:59.125Z,14.40
2022-11-08T14:30:26.747Z,14.40
2022-11-08T14:33:19.725Z,14.40
2022-11-08T14:36:03.700Z,14.40
2022-11-08T14:38:34.506Z,14.40
2022-11-08T14:41:03.388Z,14.30
2022-11-08T14:43:31.501Z,14.30
2022-11-08T14:45:58.519Z,14.30
2022-11-08T14:48:29.664Z,14.30
2022-11-08T14:51:05.736Z,14.30
2022-11-08T14:53:44.073Z,14.20
2022-11-08T14:56:26.450Z,14.20
2022-11-08T14:58:55.047Z,14.20
2022-11-08T15:01:26.642Z,14.20
2022-11-08T15:03:57.870Z,14.20
2022-11-08T15:06:32.008Z,14.20
2022-11-08T15:09:00.352Z,14.10
2022-11-08T15:11:41.253Z,14.10
2022-11-08T15:14:17.499Z,14.10
2022-11-08T15:16:50.318Z,14.00
2022-11-08T15:19:30.376Z,13.90
2022-11-08T15:22:20.470Z,13.90
2022-11-08T15:24:47.335Z,13.80
2022-11-08T15:27:17.441Z,13.70
2022-11-08T15:30:09.863Z,13.70
2022-11-08T15:32:39.347Z,13.60
2022-11-08T15:35:15.690Z,13.50
2022-11-08T15:37:42.999Z,13.50
2022-11-08T15:40:22.010Z,13.40
2022-11-08T15:42:51.820Z,13.30
2022-11-08T15:45:20.606Z,13.20
2022-11-08T15:47:49.386Z,13.10
2022-11-08T15:50:20.253Z,13.10
2022-11-08T15:52:55.669Z,13.00
2022-11-08T15:55:35.669Z,13.00
2022-11-08T15:58:02.978Z,12.90
2022-11-08T16:05:09.832Z,12.70
2022-11-08T16:08:19.803Z,12.60
2022-11-08T16:32:22.895Z,12.10
2022-11-08T16:39:44.319Z,12.00
2022-11-08T16:44:00.947Z,11.90
2022-11-08T16:50:27.019Z,11.90
2022-11-08T16:53:56.713Z,11.90
2022-11-08T17:12:50.081Z,11.80
2022-11-08T17:19:41.012Z,11.70
2022-11-08T17:26:32.928Z,11.70
2022-11-08T18:24:50.057Z,11.20
2022-11-08T18:31:44.009Z,11.10
2022-11-08T18:45:47.970Z,10.90
2022-11-08T19:08:12.048Z,10.70
2022-11-08T19:34:11.359Z,11.10
2022-11-08T19:42:00.129Z,11.30
2022-11-08T20:05:13.543Z,11.50
2022-11-08T20:39:45.454Z,11.90
2022-11-08T20:51:08.751Z,12.00
2022-11-08T21:03:58.662Z,12.00
2022-11-08T21:06:27.359Z,12.00
2022-11-08T21:08:59.904Z,11.90
2022-11-08T21:11:30.261Z,11.90
2022-11-08T21:13:57.840Z,11.90
2022-11-08T21:16:30.586Z,11.90
2022-11-08T21:18:59.051Z,12.00
2022-11-08T21:21:26.536Z,11.90
2022-11-08T21:23:54.449Z,11.90
2022-11-08T21:26:22.283Z,11.90
2022-11-08T21:28:49.234Z,11.90
2022-11-08T21:31:16.240Z,11.90
2022-11-08T21:33:43.261Z,11.80
2022-11-08T21:36:10.493Z,11.80
2022-11-08T21:38:39.060Z,11.80
2022-11-08T21:41:09.083Z,11.80
2022-11-08T21:43:37.672Z,11.80
2022-11-08T21:46:17.657Z,11.70
2022-11-08T21:48:44.811Z,11.70
2022-11-08T21:51:11.732Z,11.60
2022-11-08T21:53:46.982Z,11.60
2022-11-08T21:56:19.697Z,11.60
2022-11-08T21:58:46.485Z,11.60
2022-11-08T22:01:13.661Z,11.50
2022-11-08T22:03:40.701Z,11.50
2022-11-08T22:06:07.647Z,11.50
2022-11-08T22:08:34.628Z,11.40
2022-11-08T22:11:01.589Z,11.40
2022-11-08T22:13:28.364Z,11.40
2022-11-08T22:15:55.440Z,11.30
2022-11-08T22:18:37.030Z,11.30
2022-11-08T22:21:27.896Z,11.20
2022-11-08T22:23:54.738Z,11.10
2022-11-08T22:26:21.540Z,11.00
2022-11-08T22:28:48.378Z,11.00
2022-11-08T22:31:15.188Z,11.00
2022-11-08T22:33:41.963Z,10.90
2022-11-08T22:36:09.091Z,10.80
2022-11-08T22:38:36.102Z,10.80
2022-11-08T22:41:03.292Z,10.80
2022-11-08T22:43:30.729Z,10.70
2022-11-08T22:45:57.553Z,10.70
2022-11-08T22:48:24.625Z,10.70
2022-11-08T22:50:52.927Z,10.80
2022-11-08T22:53:23.243Z,10.70
2022-11-08T22:55:50.140Z,10.70
2022-11-08T22:58:17.026Z,10.70
2022-11-08T23:00:43.957Z,10.70
2022-11-08T23:03:10.790Z,10.60
2022-11-08T23:05:37.568Z,10.70
2022-11-08T23:08:04.812Z,10.60
2022-11-08T23:10:31.577Z,10.60
2022-11-08T23:13:17.166Z,10.70
2022-11-08T23:16:02.803Z,10.70
2022-11-08T23:18:29.616Z,10.70
2022-11-08T23:21:14.999Z,10.70
2022-11-08T23:24:00.498Z,10.70
2022-11-08T23:26:46.343Z,10.80
2022-11-08T23:29:31.661Z,10.80
2022-11-08T23:31:58.416Z,10.80
2022-11-08T23:34:25.131Z,10.90
2022-11-08T23:36:51.933Z,10.90
2022-11-08T23:39:18.817Z,11.00
2022-11-08T23:42:04.271Z,11.00
2022-11-08T23:44:31.023Z,11.00
2022-11-08T23:46:59.923Z,11.10
2022-11-08T23:49:27.443Z,11.10
2022-11-08T23:51:54.704Z,11.10
2022-11-08T23:54:21.978Z,11.20
2022-11-08T23:56:48.975Z,11.20
2022-11-08T23:59:16.349Z,11.30
